createdAt,value
2022-07-25T00:01:56.810Z,995.61
2022-07-25T00:06:56.589Z,995.58
2022-07-25T00:11:56.518Z,995.46
2022-07-25T00:16:57.663Z,995.35
2022-07-25T00:21:56.464Z,995.20
2022-07-25T00:26:56.398Z,995.11
2022-07-25T00:31:56.310Z,995.10
2022-07-25T00:36:56.278Z,995.01
2022-07-25T00:41:56.200Z,994.99
2022-07-25T00:46:56.209Z,995.01
2022-07-25T00:51:56.116Z,994.98
2022-07-25T00:56:56.031Z,994.92
2022-07-25T01:01:56.086Z,994.89
2022-07-25T01:06:55.938Z,994.83
2022-07-25T01:11:55.906Z,994.79
2022-07-25T01:16:55.813Z,994.77
2022-07-25T01:21:55.823Z,994.72
2022-07-25T01:26:56.818Z,994.73
2022-07-25T01:31:55.646Z,994.73
2022-07-25T01:36:55.664Z,994.69
2022-07-25T01:41:55.616Z,994.69
2022-07-25T01:46:55.492Z,994.66
2022-07-25T01:51:55.499Z,994.65
2022-07-25T01:56:55.375Z,994.60
2022-07-25T02:01:55.461Z,994.55
2022-07-25T02:06:55.279Z,994.47
2022-07-25T02:11:55.220Z,994.44
2022-07-25T02:16:55.260Z,994.42
2022-07-25T02:21:55.089Z,994.40
2022-07-25T02:26:55.048Z,994.27
2022-07-25T02:31:55.002Z,994.27
2022-07-25T02:36:54.941Z,994.22
2022-07-25T02:41:54.882Z,994.16
2022-07-25T02:46:54.839Z,994.11
2022-07-25T02:51:54.765Z,994.06
2022-07-25T02:56:54.804Z,993.99
2022-07-25T03:01:54.729Z,993.94
2022-07-25T03:06:54.601Z,993.91
2022-07-25T03:11:54.622Z,993.86
2022-07-25T03:16:54.557Z,993.81
2022-07-25T03:21:54.523Z,993.76
2022-07-25T03:26:54.382Z,993.76
2022-07-25T03:31:54.550Z,993.76
2022-07-25T03:36:54.273Z,993.74
2022-07-25T03:41:54.215Z,993.59
2022-07-25T03:46:54.166Z,993.60
2022-07-25T03:51:54.101Z,993.49
2022-07-25T03:56:54.045Z,993.46
2022-07-25T04:01:54.045Z,993.37
2022-07-25T04:06:53.945Z,993.34
2022-07-25T04:11:53.882Z,993.34
2022-07-25T04:16:53.889Z,993.29
2022-07-25T04:21:53.794Z,993.33
2022-07-25T04:26:53.735Z,993.24
2022-07-25T04:31:53.820Z,993.15
2022-07-25T04:36:53.618Z,993.04
2022-07-25T04:41:53.649Z,993.00
2022-07-25T04:46:53.594Z,993.03
2022-07-25T04:51:53.448Z,992.99
2022-07-25T04:56:53.382Z,993.00
2022-07-25T05:01:53.392Z,992.98
2022-07-25T05:06:53.403Z,992.89
2022-07-25T05:11:56.500Z,992.87
2022-07-25T05:16:53.220Z,992.83
2022-07-25T05:21:53.108Z,992.78
2022-07-25T05:26:53.070Z,992.73
2022-07-25T05:31:53.076Z,992.70
2022-07-25T05:36:52.952Z,992.67
2022-07-25T05:41:52.911Z,992.62
2022-07-25T05:46:52.910Z,992.58
2022-07-25T05:51:52.813Z,992.59
2022-07-25T05:56:52.773Z,992.61
2022-07-25T06:01:52.857Z,992.53
2022-07-25T06:06:52.782Z,992.52
2022-07-25T06:12:00.372Z,992.47
2022-07-25T06:16:53.561Z,992.38
2022-07-25T06:21:52.478Z,992.38
2022-07-25T06:26:52.431Z,992.38
2022-07-25T06:31:52.440Z,992.41
2022-07-25T06:36:52.329Z,992.38
2022-07-25T06:41:52.258Z,992.28
2022-07-25T06:46:52.262Z,992.29
2022-07-25T06:51:52.119Z,992.37
2022-07-25T06:56:52.091Z,992.45
2022-07-25T07:01:52.098Z,992.41
2022-07-25T07:06:51.979Z,992.28
2022-07-25T07:11:51.922Z,992.28
2022-07-25T07:16:51.875Z,992.20
2022-07-25T07:21:51.807Z,992.15
2022-07-25T07:26:51.788Z,992.15
2022-07-25T07:31:51.757Z,992.08
2022-07-25T07:36:51.685Z,992.13
2022-07-25T07:41:51.703Z,992.09
2022-07-25T07:46:51.692Z,992.03
2022-07-25T07:51:51.493Z,992.00
2022-07-25T07:56:51.446Z,991.99
2022-07-25T08:01:51.572Z,992.02
2022-07-25T08:06:51.402Z,991.86
2022-07-25T08:11:51.372Z,991.88
2022-07-25T08:16:51.295Z,991.90
2022-07-25T08:21:51.225Z,991.95
2022-07-25T08:26:51.135Z,991.93
2022-07-25T08:31:51.165Z,991.90
2022-07-25T08:36:51.041Z,991.92
2022-07-25T08:41:50.982Z,991.97
2022-07-25T08:46:51.056Z,992.06
2022-07-25T08:51:51.889Z,991.95
2022-07-25T08:56:50.802Z,991.91
2022-07-25T09:01:50.903Z,991.94
2022-07-25T09:06:50.814Z,992.00
2022-07-25T09:11:50.656Z,991.91
2022-07-25T09:16:53.946Z,991.94
2022-07-25T09:21:50.555Z,992.07
2022-07-25T09:26:50.560Z,991.87
2022-07-25T09:31:50.474Z,991.82
2022-07-25T09:36:50.472Z,991.98
2022-07-25T09:41:50.343Z,991.95
2022-07-25T09:46:50.506Z,991.97
2022-07-25T09:51:50.367Z,992.02
2022-07-25T09:56:50.209Z,991.95
2022-07-25T10:01:50.235Z,991.98
2022-07-25T10:06:50.101Z,992.12
2022-07-25T10:11:50.185Z,992.19
2022-07-25T10:16:50.111Z,992.22
2022-07-25T10:21:49.960Z,992.28
2022-07-25T10:26:49.946Z,992.41
2022-07-25T10:31:51.780Z,992.46
2022-07-25T10:36:49.853Z,992.45
2022-07-25T10:41:49.768Z,992.39
2022-07-25T10:46:49.923Z,992.42
2022-07-25T10:51:49.649Z,992.39
2022-07-25T10:56:50.619Z,992.36
2022-07-25T11:01:49.728Z,992.30
2022-07-25T11:06:49.528Z,992.25
2022-07-25T11:11:49.567Z,992.20
2022-07-25T11:16:49.648Z,992.24
2022-07-25T11:21:49.379Z,992.47
2022-07-25T11:26:49.546Z,992.42
2022-07-25T11:31:49.262Z,992.29
2022-07-25T11:36:49.309Z,992.16
2022-07-25T11:41:49.216Z,992.20
2022-07-25T11:46:49.117Z,992.26
2022-07-25T11:51:49.052Z,992.35
2022-07-25T11:56:49.019Z,992.42
2022-07-25T12:01:49.024Z,992.48
2022-07-25T12:06:48.928Z,992.43
2022-07-25T12:11:48.919Z,992.43
2022-07-25T12:16:48.878Z,992.52
2022-07-25T12:21:48.758Z,992.45
2022-07-25T12:26:48.875Z,992.47
2022-07-25T12:31:48.660Z,992.55
2022-07-25T12:36:48.604Z,992.66
2022-07-25T12:41:48.531Z,992.56
2022-07-25T12:46:49.676Z,992.68
2022-07-25T12:51:48.463Z,992.68
2022-07-25T12:56:48.463Z,992.65
2022-07-25T13:01:48.434Z,992.66
2022-07-25T13:06:48.323Z,992.65
2022-07-25T13:11:48.276Z,992.65
2022-07-25T13:16:48.267Z,992.66
2022-07-25T13:21:48.196Z,992.78
2022-07-25T13:26:48.089Z,992.68
2022-07-25T13:31:48.165Z,992.84
2022-07-25T13:36:48.043Z,992.80
2022-07-25T13:41:47.968Z,992.75
2022-07-25T13:46:47.978Z,992.73
2022-07-25T13:51:47.911Z,992.69
2022-07-25T13:56:47.794Z,992.70
2022-07-25T14:01:47.848Z,992.61
2022-07-25T14:06:47.725Z,992.64
2022-07-25T14:11:47.656Z,992.75
2022-07-25T14:16:47.616Z,992.88
2022-07-25T14:21:47.539Z,992.96
2022-07-25T14:26:47.498Z,993.03
2022-07-25T14:31:47.448Z,993.06
2022-07-25T14:36:47.406Z,992.95
2022-07-25T14:41:47.360Z,993.00
2022-07-25T14:46:47.345Z,992.91
2022-07-25T14:51:47.219Z,992.89
2022-07-25T14:56:47.150Z,993.05
2022-07-25T15:01:47.148Z,993.15
2022-07-25T15:06:47.073Z,993.24
2022-07-25T15:11:47.025Z,993.33
2022-07-25T15:16:47.017Z,993.42
2022-07-25T15:21:46.908Z,993.53
2022-07-25T15:26:46.898Z,993.50
2022-07-25T15:31:46.906Z,993.59
2022-07-25T15:36:46.729Z,993.68
2022-07-25T15:41:46.684Z,993.67
2022-07-25T15:46:46.698Z,993.83
2022-07-25T15:51:46.568Z,993.93
2022-07-25T15:56:46.523Z,993.92
2022-07-25T16:01:46.454Z,994.00
2022-07-25T16:06:46.428Z,993.89
2022-07-25T16:11:46.359Z,993.85
2022-07-25T16:16:46.375Z,993.91
2022-07-25T16:21:47.108Z,993.90
2022-07-25T16:26:46.313Z,993.88
2022-07-25T16:31:46.456Z,993.76
2022-07-25T16:36:46.275Z,993.90
2022-07-25T16:41:46.096Z,993.91
2022-07-25T16:46:46.018Z,993.91
2022-07-25T16:51:46.041Z,993.94
2022-07-25T16:56:48.167Z,993.93
2022-07-25T17:01:47.076Z,993.93
2022-07-25T17:06:45.858Z,993.98
2022-07-25T17:11:45.836Z,994.17
2022-07-25T17:16:45.667Z,994.16
2022-07-25T17:21:45.670Z,994.24
2022-07-25T17:26:45.558Z,994.11
2022-07-25T17:31:45.618Z,994.14
2022-07-25T17:36:45.482Z,994.21
2022-07-25T17:41:45.436Z,994.22
2022-07-25T17:46:45.412Z,994.15
2022-07-25T17:51:45.339Z,994.24
2022-07-25T17:56:45.320Z,994.17
2022-07-25T18:01:46.254Z,994.15
2022-07-25T18:06:45.195Z,994.23
2022-07-25T18:11:46.101Z,994.26
2022-07-25T18:16:45.041Z,994.25
2022-07-25T18:21:46.948Z,994.39
2022-07-25T18:26:44.901Z,994.41
2022-07-25T18:31:47.210Z,994.44
2022-07-25T18:36:44.798Z,994.63
2022-07-25T18:41:44.795Z,994.61
2022-07-25T18:46:44.833Z,994.69
2022-07-25T18:51:44.715Z,994.68
2022-07-25T18:56:44.560Z,994.76
2022-07-25T19:01:44.743Z,994.85
2022-07-25T19:06:44.552Z,994.88
2022-07-25T19:11:44.408Z,994.97
2022-07-25T19:16:45.819Z,995.00
2022-07-25T19:21:44.438Z,995.05
2022-07-25T19:26:48.447Z,995.10
2022-07-25T19:31:44.210Z,995.23
2022-07-25T19:36:44.499Z,995.35
2022-07-25T19:41:46.852Z,995.32
2022-07-25T19:46:45.159Z,995.37
2022-07-25T19:51:43.955Z,995.32
2022-07-25T19:56:43.954Z,995.42
2022-07-25T20:01:43.926Z,995.34
2022-07-25T20:06:43.811Z,995.39
2022-07-25T20:11:43.755Z,995.46
2022-07-25T20:16:43.841Z,995.52
2022-07-25T20:21:44.544Z,995.57
2022-07-25T20:26:43.609Z,995.62
2022-07-25T20:31:43.577Z,995.56
2022-07-25T20:36:43.512Z,995.65
2022-07-25T20:41:44.624Z,995.60
2022-07-25T20:46:43.481Z,995.59
2022-07-25T20:51:43.371Z,995.64
2022-07-25T20:56:43.264Z,995.67
2022-07-25T21:01:43.307Z,995.69
2022-07-25T21:06:43.122Z,995.77
2022-07-25T21:11:46.495Z,995.83
2022-07-25T21:16:43.069Z,995.88
2022-07-25T21:21:42.996Z,995.90
2022-07-25T21:26:42.914Z,995.97
2022-07-25T21:31:42.928Z,995.97
2022-07-25T21:36:42.786Z,996.07
2022-07-25T21:41:42.756Z,996.16
2022-07-25T21:46:42.676Z,996.20
2022-07-25T21:51:43.020Z,996.32
2022-07-25T21:56:42.577Z,996.38
2022-07-25T22:01:42.600Z,996.35
2022-07-25T22:06:42.459Z,996.41
2022-07-25T22:11:46.184Z,996.56
2022-07-25T22:16:42.437Z,996.54
2022-07-25T22:21:42.296Z,996.58
2022-07-25T22:26:42.240Z,996.66
2022-07-25T22:31:42.269Z,996.70
2022-07-25T22:36:42.129Z,996.74
2022-07-25T22:41:42.070Z,996.76
2022-07-25T22:46:42.034Z,996.80
2022-07-25T22:51:41.973Z,996.86
2022-07-25T22:56:41.909Z,996.93
2022-07-25T23:01:41.860Z,996.94
2022-07-25T23:06:41.794Z,996.98
2022-07-25T23:11:41.741Z,997.03
2022-07-25T23:16:41.823Z,997.00
2022-07-25T23:21:41.644Z,997.04
2022-07-25T23:26:41.587Z,997.07
2022-07-25T23:31:41.564Z,997.10
2022-07-25T23:36:41.485Z,997.12
2022-07-25T23:41:41.412Z,997.04
2022-07-25T23:46:41.550Z,997.08
2022-07-25T23:51:41.317Z,997.05
2022-07-25T23:56:41.267Z,997.12
